sensor_id;sensor_type;location;lat;lon;timestamp;P1;durP1;ratioP1;P2;durP2;ratioP2
17886;SDS011;9069;52.044;7.472;2022-08-16T00:02:30;7.45;;;4.40;;
17886;SDS011;9069;52.044;7.472;2022-08-16T00:04:58;8.48;;;4.22;;
17886;SDS011;9069;52.044;7.472;2022-08-16T00:07:26;8.55;;;5.07;;
17886;SDS011;9069;52.044;7.472;2022-08-16T00:09:54;7.03;;;4.28;;
17886;SDS011;9069;52.044;7.472;2022-08-16T00:12:22;5.40;;;4.55;;
17886;SDS011;9069;52.044;7.472;2022-08-16T00:14:52;6.25;;;4.75;;
17886;SDS011;9069;52.044;7.472;2022-08-16T00:17:22;6.47;;;4.70;;
17886;SDS011;9069;52.044;7.472;2022-08-16T00:19:51;6.47;;;4.63;;
17886;SDS011;9069;52.044;7.472;2022-08-16T00:22:21;6.63;;;4.18;;
17886;SDS011;9069;52.044;7.472;2022-08-16T00:24:51;6.57;;;4.28;;
17886;SDS011;9069;52.044;7.472;2022-08-16T00:27:20;5.75;;;4.47;;
17886;SDS011;9069;52.044;7.472;2022-08-16T00:29:47;8.15;;;4.78;;
17886;SDS011;9069;52.044;7.472;2022-08-16T00:32:35;8.00;;;4.38;;
17886;SDS011;9069;52.044;7.472;2022-08-16T00:35:04;6.75;;;4.47;;
17886;SDS011;9069;52.044;7.472;2022-08-16T00:37:41;7.45;;;5.60;;
17886;SDS011;9069;52.044;7.472;2022-08-16T00:40:31;9.40;;;5.75;;
17886;SDS011;9069;52.044;7.472;2022-08-16T00:43:21;8.85;;;5.22;;
17886;SDS011;9069;52.044;7.472;2022-08-16T00:46:25;5.65;;;4.65;;
17886;SDS011;9069;52.044;7.472;2022-08-16T00:49:05;11.40;;;5.72;;
17886;SDS011;9069;52.044;7.472;2022-08-16T00:51:45;6.53;;;4.95;;
17886;SDS011;9069;52.044;7.472;2022-08-16T00:54:21;6.00;;;4.95;;
17886;SDS011;9069;52.044;7.472;2022-08-16T00:56:50;6.47;;;4.85;;
17886;SDS011;9069;52.044;7.472;2022-08-16T00:59:25;7.90;;;4.97;;
17886;SDS011;9069;52.044;7.472;2022-08-16T01:01:54;7.05;;;5.40;;
17886;SDS011;9069;52.044;7.472;2022-08-16T01:04:22;7.55;;;5.15;;
17886;SDS011;9069;52.044;7.472;2022-08-16T01:06:56;6.35;;;4.82;;
17886;SDS011;9069;52.044;7.472;2022-08-16T01:09:28;9.25;;;5.47;;
17886;SDS011;9069;52.044;7.472;2022-08-16T01:12:02;5.88;;;4.95;;
17886;SDS011;9069;52.044;7.472;2022-08-16T01:14:36;7.72;;;5.18;;
17886;SDS011;9069;52.044;7.472;2022-08-16T01:17:09;11.27;;;4.93;;
17886;SDS011;9069;52.044;7.472;2022-08-16T01:19:45;9.40;;;4.50;;
17886;SDS011;9069;52.044;7.472;2022-08-16T01:22:35;9.02;;;4.95;;
17886;SDS011;9069;52.044;7.472;2022-08-16T01:25:19;6.93;;;5.18;;
17886;SDS011;9069;52.044;7.472;2022-08-16T01:28:03;6.60;;;5.30;;
17886;SDS011;9069;52.044;7.472;2022-08-16T01:30:47;6.95;;;5.10;;
17886;SDS011;9069;52.044;7.472;2022-08-16T01:33:17;6.40;;;5.18;;
17886;SDS011;9069;52.044;7.472;2022-08-16T01:35:52;7.18;;;4.60;;
17886;SDS011;9069;52.044;7.472;2022-08-16T01:38:38;6.32;;;5.10;;
17886;SDS011;9069;52.044;7.472;2022-08-16T01:41:16;6.53;;;5.38;;
17886;SDS011;9069;52.044;7.472;2022-08-16T01:43:48;5.97;;;4.75;;
17886;SDS011;9069;52.044;7.472;2022-08-16T01:49:11;9.98;;;5.80;;
17886;SDS011;9069;52.044;7.472;2022-08-16T01:51:44;7.45;;;5.63;;
17886;SDS011;9069;52.044;7.472;2022-08-16T01:54:18;9.48;;;7.22;;
17886;SDS011;9069;52.044;7.472;2022-08-16T01:56:57;12.25;;;6.68;;
17886;SDS011;9069;52.044;7.472;2022-08-16T01:59:25;9.38;;;6.50;;
17886;SDS011;9069;52.044;7.472;2022-08-16T02:01:53;10.13;;;6.82;;
17886;SDS011;9069;52.044;7.472;2022-08-16T02:04:27;12.00;;;7.05;;
17886;SDS011;9069;52.044;7.472;2022-08-16T02:07:16;11.95;;;6.68;;
17886;SDS011;9069;52.044;7.472;2022-08-16T02:09:49;10.27;;;6.60;;
17886;SDS011;9069;52.044;7.472;2022-08-16T02:12:36;11.43;;;6.72;;
17886;SDS011;9069;52.044;7.472;2022-08-16T02:15:18;8.70;;;6.65;;
17886;SDS011;9069;52.044;7.472;2022-08-16T02:17:53;9.32;;;6.88;;
17886;SDS011;9069;52.044;7.472;2022-08-16T02:20:21;8.68;;;6.47;;
17886;SDS011;9069;52.044;7.472;2022-08-16T02:22:53;10.38;;;6.25;;
17886;SDS011;9069;52.044;7.472;2022-08-16T02:25:22;9.98;;;7.03;;
17886;SDS011;9069;52.044;7.472;2022-08-16T02:27:49;10.43;;;7.13;;
17886;SDS011;9069;52.044;7.472;2022-08-16T02:30:19;9.20;;;6.47;;
17886;SDS011;9069;52.044;7.472;2022-08-16T02:33:09;10.02;;;6.65;;
17886;SDS011;9069;52.044;7.472;2022-08-16T02:35:37;8.38;;;6.65;;
17886;SDS011;9069;52.044;7.472;2022-08-16T02:38:22;8.70;;;6.78;;
17886;SDS011;9069;52.044;7.472;2022-08-16T02:40:49;8.25;;;6.63;;
17886;SDS011;9069;52.044;7.472;2022-08-16T02:43:19;8.13;;;6.40;;
17886;SDS011;9069;52.044;7.472;2022-08-16T02:45:54;10.60;;;6.47;;
17886;SDS011;9069;52.044;7.472;2022-08-16T02:48:22;9.05;;;6.65;;
17886;SDS011;9069;52.044;7.472;2022-08-16T02:50:57;10.35;;;5.90;;
17886;SDS011;9069;52.044;7.472;2022-08-16T02:53:38;9.10;;;6.47;;
17886;SDS011;9069;52.044;7.472;2022-08-16T02:56:09;8.63;;;6.32;;
17886;SDS011;9069;52.044;7.472;2022-08-16T02:58:40;8.23;;;6.43;;
17886;SDS011;9069;52.044;7.472;2022-08-16T03:01:10;7.75;;;6.82;;
17886;SDS011;9069;52.044;7.472;2022-08-16T03:04:02;8.25;;;7.20;;
17886;SDS011;9069;52.044;7.472;2022-08-16T03:06:50;9.10;;;6.57;;
17886;SDS011;9069;52.044;7.472;2022-08-16T03:09:36;9.60;;;6.18;;
17886;SDS011;9069;52.044;7.472;2022-08-16T03:12:04;6.78;;;6.07;;
17886;SDS011;9069;52.044;7.472;2022-08-16T03:14:32;10.15;;;6.80;;
17886;SDS011;9069;52.044;7.472;2022-08-16T03:17:02;8.15;;;5.88;;
17886;SDS011;9069;52.044;7.472;2022-08-16T03:19:33;8.13;;;6.45;;
17886;SDS011;9069;52.044;7.472;2022-08-16T03:22:21;7.57;;;5.95;;
17886;SDS011;9069;52.044;7.472;2022-08-16T03:24:59;6.80;;;5.70;;
17886;SDS011;9069;52.044;7.472;2022-08-16T03:27:30;9.25;;;5.45;;
17886;SDS011;9069;52.044;7.472;2022-08-16T03:30:01;7.65;;;5.88;;
17886;SDS011;9069;52.044;7.472;2022-08-16T03:32:46;8.55;;;5.93;;
17886;SDS011;9069;52.044;7.472;2022-08-16T03:35:19;11.40;;;6.40;;
17886;SDS011;9069;52.044;7.472;2022-08-16T03:38:05;9.90;;;6.00;;
17886;SDS011;9069;52.044;7.472;2022-08-16T03:40:55;6.85;;;5.47;;
17886;SDS011;9069;52.044;7.472;2022-08-16T03:43:24;8.05;;;6.20;;
17886;SDS011;9069;52.044;7.472;2022-08-16T03:46:15;9.65;;;6.03;;
17886;SDS011;9069;52.044;7.472;2022-08-16T03:49:02;6.13;;;5.32;;
17886;SDS011;9069;52.044;7.472;2022-08-16T03:51:29;7.38;;;6.00;;
17886;SDS011;9069;52.044;7.472;2022-08-16T03:54:03;8.30;;;5.97;;
17886;SDS011;9069;52.044;7.472;2022-08-16T03:56:38;7.80;;;5.50;;
17886;SDS011;9069;52.044;7.472;2022-08-16T03:59:27;11.82;;;5.82;;
17886;SDS011;9069;52.044;7.472;2022-08-16T04:01:58;8.00;;;6.00;;
17886;SDS011;9069;52.044;7.472;2022-08-16T04:04:28;8.63;;;5.55;;
17886;SDS011;9069;52.044;7.472;2022-08-16T04:07:01;6.60;;;5.40;;
17886;SDS011;9069;52.044;7.472;2022-08-16T04:09:34;8.30;;;5.30;;
17886;SDS011;9069;52.044;7.472;2022-08-16T04:12:04;8.32;;;6.00;;
17886;SDS011;9069;52.044;7.472;2022-08-16T04:14:51;7.03;;;5.28;;
17886;SDS011;9069;52.044;7.472;2022-08-16T04:17:20;10.07;;;6.88;;
17886;SDS011;9069;52.044;7.472;2022-08-16T04:19:49;7.80;;;5.78;;
17886;SDS011;9069;52.044;7.472;2022-08-16T04:22:20;11.88;;;6.93;;
17886;SDS011;9069;52.044;7.472;2022-08-16T04:24:55;7.00;;;6.05;;
17886;SDS011;9069;52.044;7.472;2022-08-16T04:27:30;7.70;;;6.07;;
17886;SDS011;9069;52.044;7.472;2022-08-16T04:29:58;6.70;;;5.70;;
17886;SDS011;9069;52.044;7.472;2022-08-16T04:32:30;10.40;;;6.10;;
17886;SDS011;9069;52.044;7.472;2022-08-16T04:34:58;9.43;;;6.07;;
17886;SDS011;9069;52.044;7.472;2022-08-16T04:37:32;7.35;;;5.78;;
17886;SDS011;9069;52.044;7.472;2022-08-16T04:40:14;9.73;;;5.93;;
17886;SDS011;9069;52.044;7.472;2022-08-16T04:42:51;8.65;;;5.78;;
17886;SDS011;9069;52.044;7.472;2022-08-16T04:45:22;9.63;;;6.32;;
17886;SDS011;9069;52.044;7.472;2022-08-16T04:48:06;7.90;;;5.68;;
17886;SDS011;9069;52.044;7.472;2022-08-16T04:50:42;12.88;;;5.43;;
17886;SDS011;9069;52.044;7.472;2022-08-16T04:53:13;7.40;;;5.55;;
17886;SDS011;9069;52.044;7.472;2022-08-16T04:55:42;6.22;;;5.40;;
17886;SDS011;9069;52.044;7.472;2022-08-16T04:58:11;6.72;;;5.80;;
17886;SDS011;9069;52.044;7.472;2022-08-16T05:00:59;11.60;;;5.60;;
17886;SDS011;9069;52.044;7.472;2022-08-16T05:03:29;8.95;;;5.95;;
17886;SDS011;9069;52.044;7.472;2022-08-16T05:05:56;8.27;;;6.03;;
17886;SDS011;9069;52.044;7.472;2022-08-16T05:08:31;10.80;;;6.00;;
17886;SDS011;9069;52.044;7.472;2022-08-16T05:11:16;10.45;;;5.82;;
17886;SDS011;9069;52.044;7.472;2022-08-16T05:13:44;9.30;;;6.43;;
17886;SDS011;9069;52.044;7.472;2022-08-16T05:16:23;9.20;;;5.78;;
17886;SDS011;9069;52.044;7.472;2022-08-16T05:19:03;6.15;;;5.43;;
17886;SDS011;9069;52.044;7.472;2022-08-16T05:21:49;9.40;;;5.47;;
17886;SDS011;9069;52.044;7.472;2022-08-16T05:24:17;8.48;;;5.60;;
17886;SDS011;9069;52.044;7.472;2022-08-16T05:26:50;7.43;;;5.63;;
17886;SDS011;9069;52.044;7.472;2022-08-16T05:29:18;8.77;;;5.53;;
17886;SDS011;9069;52.044;7.472;2022-08-16T05:32:00;7.95;;;5.63;;
17886;SDS011;9069;52.044;7.472;2022-08-16T05:34:28;8.02;;;5.80;;
17886;SDS011;9069;52.044;7.472;2022-08-16T05:36:55;8.10;;;5.65;;
17886;SDS011;9069;52.044;7.472;2022-08-16T05:39:29;11.52;;;6.07;;
17886;SDS011;9069;52.044;7.472;2022-08-16T05:41:59;7.03;;;5.38;;
17886;SDS011;9069;52.044;7.472;2022-08-16T05:44:26;12.52;;;5.85;;
17886;SDS011;9069;52.044;7.472;2022-08-16T05:46:56;9.45;;;5.75;;
17886;SDS011;9069;52.044;7.472;2022-08-16T05:49:28;8.68;;;6.43;;
17886;SDS011;9069;52.044;7.472;2022-08-16T05:52:07;8.85;;;5.88;;
17886;SDS011;9069;52.044;7.472;2022-08-16T05:54:36;6.63;;;5.70;;
17886;SDS011;9069;52.044;7.472;2022-08-16T05:57:11;8.27;;;6.10;;
17886;SDS011;9069;52.044;7.472;2022-08-16T05:59:40;9.30;;;6.38;;
17886;SDS011;9069;52.044;7.472;2022-08-16T06:02:08;15.52;;;6.43;;
17886;SDS011;9069;52.044;7.472;2022-08-16T06:04:36;8.10;;;5.97;;
17886;SDS011;9069;52.044;7.472;2022-08-16T06:07:13;10.20;;;5.70;;
17886;SDS011;9069;52.044;7.472;2022-08-16T06:09:56;9.23;;;5.80;;
17886;SDS011;9069;52.044;7.472;2022-08-16T06:12:27;6.97;;;5.63;;
17886;SDS011;9069;52.044;7.472;2022-08-16T06:15:01;7.13;;;5.47;;
17886;SDS011;9069;52.044;7.472;2022-08-16T06:17:36;8.65;;;5.28;;
17886;SDS011;9069;52.044;7.472;2022-08-16T06:20:13;7.00;;;5.20;;
17886;SDS011;9069;52.044;7.472;2022-08-16T06:22:51;7.50;;;5.50;;
17886;SDS011;9069;52.044;7.472;2022-08-16T06:25:33;7.13;;;5.30;;
17886;SDS011;9069;52.044;7.472;2022-08-16T06:28:04;8.52;;;5.30;;
17886;SDS011;9069;52.044;7.472;2022-08-16T06:30:37;7.95;;;5.47;;
17886;SDS011;9069;52.044;7.472;2022-08-16T06:33:12;6.00;;;4.68;;
17886;SDS011;9069;52.044;7.472;2022-08-16T06:35:50;8.90;;;4.90;;
17886;SDS011;9069;52.044;7.472;2022-08-16T06:38:27;8.65;;;4.85;;
17886;SDS011;9069;52.044;7.472;2022-08-16T06:41:02;7.28;;;5.15;;
17886;SDS011;9069;52.044;7.472;2022-08-16T06:43:40;5.63;;;4.25;;
17886;SDS011;9069;52.044;7.472;2022-08-16T06:46:20;6.20;;;5.05;;
17886;SDS011;9069;52.044;7.472;2022-08-16T06:49:06;8.88;;;4.60;;
17886;SDS011;9069;52.044;7.472;2022-08-16T06:51:37;6.45;;;4.57;;
17886;SDS011;9069;52.044;7.472;2022-08-16T06:54:16;7.40;;;4.43;;
17886;SDS011;9069;52.044;7.472;2022-08-16T06:56:44;12.45;;;4.85;;
17886;SDS011;9069;52.044;7.472;2022-08-16T06:59:12;12.90;;;6.13;;
17886;SDS011;9069;52.044;7.472;2022-08-16T07:01:46;7.25;;;4.80;;
17886;SDS011;9069;52.044;7.472;2022-08-16T07:04:21;7.05;;;4.85;;
17886;SDS011;9069;52.044;7.472;2022-08-16T07:06:59;7.88;;;4.55;;
17886;SDS011;9069;52.044;7.472;2022-08-16T07:09:28;5.75;;;4.28;;
17886;SDS011;9069;52.044;7.472;2022-08-16T07:11:56;7.80;;;4.25;;
17886;SDS011;9069;52.044;7.472;2022-08-16T07:14:31;6.70;;;4.50;;
17886;SDS011;9069;52.044;7.472;2022-08-16T07:17:01;6.53;;;4.15;;
17886;SDS011;9069;52.044;7.472;2022-08-16T07:19:38;7.70;;;4.00;;
17886;SDS011;9069;52.044;7.472;2022-08-16T07:22:31;8.18;;;4.13;;
17886;SDS011;9069;52.044;7.472;2022-08-16T07:25:22;5.47;;;3.67;;
17886;SDS011;9069;52.044;7.472;2022-08-16T07:27:49;9.38;;;4.22;;
17886;SDS011;9069;52.044;7.472;2022-08-16T07:30:20;6.63;;;4.00;;
17886;SDS011;9069;52.044;7.472;2022-08-16T07:33:09;6.20;;;3.80;;
17886;SDS011;9069;52.044;7.472;2022-08-16T07:35:42;7.50;;;4.18;;
17886;SDS011;9069;52.044;7.472;2022-08-16T07:38:16;6.05;;;3.40;;
17886;SDS011;9069;52.044;7.472;2022-08-16T07:40:51;7.05;;;4.45;;
17886;SDS011;9069;52.044;7.472;2022-08-16T07:43:28;4.78;;;3.72;;
17886;SDS011;9069;52.044;7.472;2022-08-16T07:45:58;8.55;;;3.88;;
17886;SDS011;9069;52.044;7.472;2022-08-16T07:48:28;4.88;;;4.22;;
17886;SDS011;9069;52.044;7.472;2022-08-16T07:50:55;6.60;;;4.07;;
17886;SDS011;9069;52.044;7.472;2022-08-16T07:53:28;5.10;;;3.55;;
17886;SDS011;9069;52.044;7.472;2022-08-16T07:55:57;7.00;;;3.80;;
17886;SDS011;9069;52.044;7.472;2022-08-16T07:58:34;6.68;;;3.75;;
17886;SDS011;9069;52.044;7.472;2022-08-16T08:01:07;5.82;;;3.70;;
17886;SDS011;9069;52.044;7.472;2022-08-16T08:03:44;3.10;;;2.80;;
17886;SDS011;9069;52.044;7.472;2022-08-16T08:06:20;5.03;;;3.42;;
17886;SDS011;9069;52.044;7.472;2022-08-16T08:08:50;4.25;;;3.38;;
17886;SDS011;9069;52.044;7.472;2022-08-16T08:11:23;4.68;;;3.38;;
17886;SDS011;9069;52.044;7.472;2022-08-16T08:13:54;6.35;;;3.70;;
17886;SDS011;9069;52.044;7.472;2022-08-16T08:16:31;4.53;;;3.67;;
17886;SDS011;9069;52.044;7.472;2022-08-16T08:19:01;4.70;;;3.47;;
17886;SDS011;9069;52.044;7.472;2022-08-16T08:21:32;4.18;;;3.17;;
17886;SDS011;9069;52.044;7.472;2022-08-16T08:24:21;6.00;;;3.38;;
17886;SDS011;9069;52.044;7.472;2022-08-16T08:26:59;5.53;;;3.28;;
17886;SDS011;9069;52.044;7.472;2022-08-16T08:29:31;5.22;;;3.80;;
17886;SDS011;9069;52.044;7.472;2022-08-16T08:32:04;4.75;;;3.10;;
17886;SDS011;9069;52.044;7.472;2022-08-16T08:34:55;5.95;;;3.20;;
17886;SDS011;9069;52.044;7.472;2022-08-16T08:37:34;5.45;;;3.60;;
17886;SDS011;9069;52.044;7.472;2022-08-16T08:40:24;5.95;;;3.13;;
17886;SDS011;9069;52.044;7.472;2022-08-16T08:42:57;3.45;;;3.08;;
17886;SDS011;9069;52.044;7.472;2022-08-16T08:45:50;3.38;;;2.85;;
17886;SDS011;9069;52.044;7.472;2022-08-16T08:48:22;6.07;;;2.92;;
17886;SDS011;9069;52.044;7.472;2022-08-16T08:51:03;8.48;;;2.90;;
17886;SDS011;9069;52.044;7.472;2022-08-16T08:53:44;8.95;;;3.05;;
17886;SDS011;9069;52.044;7.472;2022-08-16T08:56:25;3.63;;;2.78;;
17886;SDS011;9069;52.044;7.472;2022-08-16T08:59:02;5.93;;;3.60;;
17886;SDS011;9069;52.044;7.472;2022-08-16T09:01:47;5.53;;;3.35;;
17886;SDS011;9069;52.044;7.472;2022-08-16T09:04:24;3.22;;;2.67;;
17886;SDS011;9069;52.044;7.472;2022-08-16T09:06:53;4.97;;;3.90;;
17886;SDS011;9069;52.044;7.472;2022-08-16T09:09:22;5.13;;;2.97;;
17886;SDS011;9069;52.044;7.472;2022-08-16T09:11:55;7.55;;;3.85;;
17886;SDS011;9069;52.044;7.472;2022-08-16T09:14:39;6.40;;;3.58;;
17886;SDS011;9069;52.044;7.472;2022-08-16T09:17:20;4.70;;;2.83;;
17886;SDS011;9069;52.044;7.472;2022-08-16T09:20:09;6.53;;;3.03;;
17886;SDS011;9069;52.044;7.472;2022-08-16T09:22:40;7.72;;;3.20;;
17886;SDS011;9069;52.044;7.472;2022-08-16T09:25:09;6.93;;;3.13;;
17886;SDS011;9069;52.044;7.472;2022-08-16T09:27:39;4.05;;;2.75;;
17886;SDS011;9069;52.044;7.472;2022-08-16T09:30:24;3.40;;;3.10;;
17886;SDS011;9069;52.044;7.472;2022-08-16T09:33:02;5.72;;;3.10;;
17886;SDS011;9069;52.044;7.472;2022-08-16T09:35:34;5.70;;;3.58;;
17886;SDS011;9069;52.044;7.472;2022-08-16T09:38:04;7.00;;;3.40;;
17886;SDS011;9069;52.044;7.472;2022-08-16T09:40:34;7.45;;;3.63;;
17886;SDS011;9069;52.044;7.472;2022-08-16T09:43:13;3.45;;;3.00;;
17886;SDS011;9069;52.044;7.472;2022-08-16T09:46:04;5.50;;;3.25;;
17886;SDS011;9069;52.044;7.472;2022-08-16T09:48:53;3.58;;;3.15;;
17886;SDS011;9069;52.044;7.472;2022-08-16T09:51:21;4.13;;;2.90;;
17886;SDS011;9069;52.044;7.472;2022-08-16T09:53:56;7.35;;;3.05;;
17886;SDS011;9069;52.044;7.472;2022-08-16T09:56:30;4.55;;;2.67;;
17886;SDS011;9069;52.044;7.472;2022-08-16T09:58:59;4.65;;;3.10;;
17886;SDS011;9069;52.044;7.472;2022-08-16T10:01:32;3.08;;;2.78;;
17886;SDS011;9069;52.044;7.472;2022-08-16T10:04:00;4.53;;;2.63;;
17886;SDS011;9069;52.044;7.472;2022-08-16T10:06:30;3.58;;;2.58;;
17886;SDS011;9069;52.044;7.472;2022-08-16T10:09:12;4.03;;;2.83;;
17886;SDS011;9069;52.044;7.472;2022-08-16T10:11:40;3.42;;;2.50;;
17886;SDS011;9069;52.044;7.472;2022-08-16T10:14:44;3.03;;;2.67;;
17886;SDS011;9069;52.044;7.472;2022-08-16T10:17:11;4.07;;;3.05;;
17886;SDS011;9069;52.044;7.472;2022-08-16T10:19:39;3.50;;;2.50;;
17886;SDS011;9069;52.044;7.472;2022-08-16T10:22:08;3.53;;;2.75;;
17886;SDS011;9069;52.044;7.472;2022-08-16T10:24:38;5.45;;;2.83;;
17886;SDS011;9069;52.044;7.472;2022-08-16T10:27:21;4.72;;;2.72;;
17886;SDS011;9069;52.044;7.472;2022-08-16T10:30:08;6.55;;;2.75;;
17886;SDS011;9069;52.044;7.472;2022-08-16T10:32:51;5.72;;;2.70;;
17886;SDS011;9069;52.044;7.472;2022-08-16T10:35:18;2.63;;;2.42;;
17886;SDS011;9069;52.044;7.472;2022-08-16T10:37:45;3.00;;;2.40;;
17886;SDS011;9069;52.044;7.472;2022-08-16T10:40:12;5.68;;;2.55;;
17886;SDS011;9069;52.044;7.472;2022-08-16T10:42:55;4.28;;;2.47;;
17886;SDS011;9069;52.044;7.472;2022-08-16T10:45:25;7.35;;;2.28;;
17886;SDS011;9069;52.044;7.472;2022-08-16T10:47:53;3.17;;;2.60;;
17886;SDS011;9069;52.044;7.472;2022-08-16T10:50:28;4.32;;;2.42;;
17886;SDS011;9069;52.044;7.472;2022-08-16T10:52:56;2.65;;;2.13;;
17886;SDS011;9069;52.044;7.472;2022-08-16T10:55:25;3.67;;;3.00;;
17886;SDS011;9069;52.044;7.472;2022-08-16T10:58:12;2.40;;;2.20;;
17886;SDS011;9069;52.044;7.472;2022-08-16T11:00:42;3.25;;;2.40;;
17886;SDS011;9069;52.044;7.472;2022-08-16T11:03:11;7.50;;;2.60;;
17886;SDS011;9069;52.044;7.472;2022-08-16T11:05:59;3.50;;;2.50;;
17886;SDS011;9069;52.044;7.472;2022-08-16T11:08:33;2.45;;;2.20;;
17886;SDS011;9069;52.044;7.472;2022-08-16T11:11:07;4.03;;;2.78;;
17886;SDS011;9069;52.044;7.472;2022-08-16T11:13:43;3.03;;;2.50;;
17886;SDS011;9069;52.044;7.472;2022-08-16T11:16:31;2.75;;;2.55;;
17886;SDS011;9069;52.044;7.472;2022-08-16T11:19:18;3.25;;;2.60;;
17886;SDS011;9069;52.044;7.472;2022-08-16T11:21:47;3.60;;;2.78;;
17886;SDS011;9069;52.044;7.472;2022-08-16T11:24:34;3.05;;;2.47;;
17886;SDS011;9069;52.044;7.472;2022-08-16T11:27:27;4.20;;;2.58;;
17886;SDS011;9069;52.044;7.472;2022-08-16T11:30:00;3.65;;;2.60;;
17886;SDS011;9069;52.044;7.472;2022-08-16T11:32:34;5.10;;;2.63;;
17886;SDS011;9069;52.044;7.472;2022-08-16T11:35:04;4.10;;;2.45;;
17886;SDS011;9069;52.044;7.472;2022-08-16T11:37:46;4.00;;;2.72;;
17886;SDS011;9069;52.044;7.472;2022-08-16T11:40:37;3.60;;;2.53;;
17886;SDS011;9069;52.044;7.472;2022-08-16T11:43:19;3.25;;;2.33;;
17886;SDS011;9069;52.044;7.472;2022-08-16T11:45:50;3.42;;;2.63;;
17886;SDS011;9069;52.044;7.472;2022-08-16T11:48:20;3.80;;;2.90;;
17886;SDS011;9069;52.044;7.472;2022-08-16T11:50:51;3.80;;;2.80;;
17886;SDS011;9069;52.044;7.472;2022-08-16T11:53:18;3.60;;;2.50;;
17886;SDS011;9069;52.044;7.472;2022-08-16T11:55:47;4.05;;;2.35;;
17886;SDS011;9069;52.044;7.472;2022-08-16T11:58:21;3.92;;;2.70;;
17886;SDS011;9069;52.044;7.472;2022-08-16T12:00:50;6.65;;;2.60;;
17886;SDS011;9069;52.044;7.472;2022-08-16T12:03:20;2.58;;;2.38;;
17886;SDS011;9069;52.044;7.472;2022-08-16T12:06:03;4.18;;;2.95;;
17886;SDS011;9069;52.044;7.472;2022-08-16T12:08:55;10.50;;;3.65;;
17886;SDS011;9069;52.044;7.472;2022-08-16T12:11:27;4.72;;;2.55;;
17886;SDS011;9069;52.044;7.472;2022-08-16T12:13:58;8.40;;;2.70;;
17886;SDS011;9069;52.044;7.472;2022-08-16T12:16:25;4.45;;;2.63;;
17886;SDS011;9069;52.044;7.472;2022-08-16T12:18:59;4.57;;;2.75;;
17886;SDS011;9069;52.044;7.472;2022-08-16T12:21:27;5.35;;;2.83;;
17886;SDS011;9069;52.044;7.472;2022-08-16T12:24:13;4.60;;;2.88;;
17886;SDS011;9069;52.044;7.472;2022-08-16T12:26:41;5.25;;;2.50;;
17886;SDS011;9069;52.044;7.472;2022-08-16T12:29:08;2.97;;;2.13;;
17886;SDS011;9069;52.044;7.472;2022-08-16T12:31:35;4.35;;;2.53;;
17886;SDS011;9069;52.044;7.472;2022-08-16T12:34:22;5.95;;;2.83;;
17886;SDS011;9069;52.044;7.472;2022-08-16T12:36:54;2.78;;;2.55;;
17886;SDS011;9069;52.044;7.472;2022-08-16T12:39:21;4.57;;;2.25;;
17886;SDS011;9069;52.044;7.472;2022-08-16T12:41:54;3.38;;;2.67;;
17886;SDS011;9069;52.044;7.472;2022-08-16T12:44:22;3.50;;;2.90;;
17886;SDS011;9069;52.044;7.472;2022-08-16T12:46:56;3.20;;;2.53;;
17886;SDS011;9069;52.044;7.472;2022-08-16T12:49:49;7.00;;;2.80;;
17886;SDS011;9069;52.044;7.472;2022-08-16T12:52:16;5.38;;;2.75;;
17886;SDS011;9069;52.044;7.472;2022-08-16T12:55:00;4.15;;;2.63;;
17886;SDS011;9069;52.044;7.472;2022-08-16T12:57:28;5.43;;;2.55;;
17886;SDS011;9069;52.044;7.472;2022-08-16T13:00:04;5.40;;;2.65;;
17886;SDS011;9069;52.044;7.472;2022-08-16T13:02:36;2.85;;;2.47;;
17886;SDS011;9069;52.044;7.472;2022-08-16T13:05:03;3.58;;;2.50;;
17886;SDS011;9069;52.044;7.472;2022-08-16T13:07:33;3.13;;;2.60;;
17886;SDS011;9069;52.044;7.472;2022-08-16T13:10:08;5.40;;;3.05;;
17886;SDS011;9069;52.044;7.472;2022-08-16T13:12:59;6.03;;;2.70;;
17886;SDS011;9069;52.044;7.472;2022-08-16T13:15:27;6.97;;;2.67;;
17886;SDS011;9069;52.044;7.472;2022-08-16T13:17:55;5.50;;;2.78;;
17886;SDS011;9069;52.044;7.472;2022-08-16T13:20:24;2.70;;;2.50;;
17886;SDS011;9069;52.044;7.472;2022-08-16T13:23:00;3.05;;;2.75;;
17886;SDS011;9069;52.044;7.472;2022-08-16T13:25:32;3.58;;;2.80;;
17886;SDS011;9069;52.044;7.472;2022-08-16T13:28:01;4.28;;;2.70;;
17886;SDS011;9069;52.044;7.472;2022-08-16T13:30:50;2.75;;;2.22;;
17886;SDS011;9069;52.044;7.472;2022-08-16T13:33:22;2.58;;;2.38;;
17886;SDS011;9069;52.044;7.472;2022-08-16T13:35:57;3.10;;;2.70;;
17886;SDS011;9069;52.044;7.472;2022-08-16T13:38:29;3.58;;;2.78;;
17886;SDS011;9069;52.044;7.472;2022-08-16T13:41:03;3.65;;;2.63;;
17886;SDS011;9069;52.044;7.472;2022-08-16T13:43:34;3.03;;;2.72;;
17886;SDS011;9069;52.044;7.472;2022-08-16T13:46:03;3.67;;;2.80;;
17886;SDS011;9069;52.044;7.472;2022-08-16T13:48:31;3.13;;;2.47;;
17886;SDS011;9069;52.044;7.472;2022-08-16T13:51:11;5.07;;;2.58;;
17886;SDS011;9069;52.044;7.472;2022-08-16T13:53:42;3.13;;;2.83;;
17886;SDS011;9069;52.044;7.472;2022-08-16T13:56:19;3.08;;;2.75;;
17886;SDS011;9069;52.044;7.472;2022-08-16T13:58:50;5.95;;;2.42;;
17886;SDS011;9069;52.044;7.472;2022-08-16T14:01:20;4.88;;;2.75;;
17886;SDS011;9069;52.044;7.472;2022-08-16T14:03:47;4.10;;;2.80;;
17886;SDS011;9069;52.044;7.472;2022-08-16T14:06:20;4.88;;;2.58;;
17886;SDS011;9069;52.044;7.472;2022-08-16T14:08:46;2.50;;;2.30;;
17886;SDS011;9069;52.044;7.472;2022-08-16T14:11:24;3.85;;;2.53;;
17886;SDS011;9069;52.044;7.472;2022-08-16T14:13:54;2.50;;;2.30;;
17886;SDS011;9069;52.044;7.472;2022-08-16T14:16:20;5.53;;;2.58;;
17886;SDS011;9069;52.044;7.472;2022-08-16T14:18:59;4.45;;;2.80;;
17886;SDS011;9069;52.044;7.472;2022-08-16T14:21:27;3.35;;;2.50;;
17886;SDS011;9069;52.044;7.472;2022-08-16T14:24:01;4.00;;;2.40;;
17886;SDS011;9069;52.044;7.472;2022-08-16T14:26:38;4.45;;;2.55;;
17886;SDS011;9069;52.044;7.472;2022-08-16T14:29:08;3.20;;;2.67;;
17886;SDS011;9069;52.044;7.472;2022-08-16T14:31:36;4.72;;;2.67;;
17886;SDS011;9069;52.044;7.472;2022-08-16T14:34:06;3.78;;;2.55;;
17886;SDS011;9069;52.044;7.472;2022-08-16T14:36:36;2.90;;;2.60;;
17886;SDS011;9069;52.044;7.472;2022-08-16T14:39:07;3.50;;;2.97;;
17886;SDS011;9069;52.044;7.472;2022-08-16T14:41:35;3.42;;;2.58;;
17886;SDS011;9069;52.044;7.472;2022-08-16T14:44:04;2.67;;;2.35;;
17886;SDS011;9069;52.044;7.472;2022-08-16T14:46:31;4.13;;;2.97;;
17886;SDS011;9069;52.044;7.472;2022-08-16T14:49:00;4.15;;;3.00;;
17886;SDS011;9069;52.044;7.472;2022-08-16T14:51:27;5.00;;;2.63;;
17886;SDS011;9069;52.044;7.472;2022-08-16T14:53:54;6.57;;;2.97;;
17886;SDS011;9069;52.044;7.472;2022-08-16T14:56:21;4.30;;;3.15;;
17886;SDS011;9069;52.044;7.472;2022-08-16T14:59:07;3.22;;;2.47;;
17886;SDS011;9069;52.044;7.472;2022-08-16T15:01:34;3.58;;;2.22;;
17886;SDS011;9069;52.044;7.472;2022-08-16T15:04:21;4.57;;;2.75;;
17886;SDS011;9069;52.044;7.472;2022-08-16T15:07:05;10.07;;;2.97;;
17886;SDS011;9069;52.044;7.472;2022-08-16T15:09:38;5.47;;;2.33;;
17886;SDS011;9069;52.044;7.472;2022-08-16T15:12:25;7.53;;;3.10;;
17886;SDS011;9069;52.044;7.472;2022-08-16T15:14:59;2.65;;;2.40;;
17886;SDS011;9069;52.044;7.472;2022-08-16T15:17:29;2.65;;;2.28;;
17886;SDS011;9069;52.044;7.472;2022-08-16T15:20:02;7.50;;;2.92;;
17886;SDS011;9069;52.044;7.472;2022-08-16T15:22:36;3.47;;;2.63;;
17886;SDS011;9069;52.044;7.472;2022-08-16T15:25:13;4.68;;;2.75;;
17886;SDS011;9069;52.044;7.472;2022-08-16T15:27:55;4.90;;;2.60;;
17886;SDS011;9069;52.044;7.472;2022-08-16T15:30:23;6.28;;;2.75;;
17886;SDS011;9069;52.044;7.472;2022-08-16T15:33:14;4.28;;;2.50;;
17886;SDS011;9069;52.044;7.472;2022-08-16T15:35:45;4.47;;;2.60;;
17886;SDS011;9069;52.044;7.472;2022-08-16T15:38:15;2.92;;;2.30;;
17886;SDS011;9069;52.044;7.472;2022-08-16T15:41:02;6.60;;;3.10;;
17886;SDS011;9069;52.044;7.472;2022-08-16T15:43:30;3.90;;;2.42;;
17886;SDS011;9069;52.044;7.472;2022-08-16T15:46:05;4.63;;;2.80;;
17886;SDS011;9069;52.044;7.472;2022-08-16T15:49:08;3.83;;;2.67;;
17886;SDS011;9069;52.044;7.472;2022-08-16T15:51:37;3.92;;;2.55;;